sensor_id;sensor_type;location;lat;lon;timestamp;temperature;humidity
9772;DHT22;4925;52.588;13.370;2023-01-16T00:02:12;5.80;99.90
9772;DHT22;4925;52.588;13.370;2023-01-16T00:04:38;5.70;99.90
9772;DHT22;4925;52.588;13.370;2023-01-16T00:07:04;5.70;99.90
9772;DHT22;4925;52.588;13.370;2023-01-16T00:09:29;5.70;99.90
9772;DHT22;4925;52.588;13.370;2023-01-16T00:11:55;5.70;99.90
9772;DHT22;4925;52.588;13.370;2023-01-16T00:14:21;5.80;99.90
9772;DHT22;4925;52.588;13.370;2023-01-16T00:16:46;5.80;99.90
9772;DHT22;4925;52.588;13.370;2023-01-16T00:19:12;5.80;99.90
9772;DHT22;4925;52.588;13.370;2023-01-16T00:21:37;5.80;99.90
9772;DHT22;4925;52.588;13.370;2023-01-16T00:24:03;5.80;99.90
9772;DHT22;4925;52.588;13.370;2023-01-16T00:26:31;5.80;99.90
9772;DHT22;4925;52.588;13.370;2023-01-16T00:28:57;5.90;99.90
9772;DHT22;4925;52.588;13.370;2023-01-16T00:31:24;5.90;99.90
9772;DHT22;4925;52.588;13.370;2023-01-16T00:33:53;5.90;99.90
9772;DHT22;4925;52.588;13.370;2023-01-16T00:36:19;5.90;99.90
9772;DHT22;4925;52.588;13.370;2023-01-16T00:38:45;5.90;99.90
9772;DHT22;4925;52.588;13.370;2023-01-16T00:41:11;5.90;99.90
9772;DHT22;4925;52.588;13.370;2023-01-16T00:43:37;5.80;99.90
9772;DHT22;4925;52.588;13.370;2023-01-16T00:46:02;5.90;99.90
9772;DHT22;4925;52.588;13.370;2023-01-16T00:48:28;5.80;99.90
9772;DHT22;4925;52.588;13.370;2023-01-16T00:50:54;5.90;99.90
9772;DHT22;4925;52.588;13.370;2023-01-16T00:53:20;5.90;99.90
9772;DHT22;4925;52.588;13.370;2023-01-16T00:55:45;5.90;99.90
9772;DHT22;4925;52.588;13.370;2023-01-16T00:58:11;5.90;99.90
9772;DHT22;4925;52.588;13.370;2023-01-16T01:00:37;6.00;99.90
9772;DHT22;4925;52.588;13.370;2023-01-16T01:03:04;6.10;99.90
9772;DHT22;4925;52.588;13.370;2023-01-16T01:05:30;6.00;99.90
9772;DHT22;4925;52.588;13.370;2023-01-16T01:07:56;6.00;99.90
9772;DHT22;4925;52.588;13.370;2023-01-16T01:10:21;6.00;99.90
9772;DHT22;4925;52.588;13.370;2023-01-16T01:12:47;6.00;99.90
9772;DHT22;4925;52.588;13.370;2023-01-16T01:15:13;6.00;99.90
9772;DHT22;4925;52.588;13.370;2023-01-16T01:17:38;5.90;99.90
9772;DHT22;4925;52.588;13.370;2023-01-16T01:20:05;5.90;99.90
9772;DHT22;4925;52.588;13.370;2023-01-16T01:22:30;5.90;99.90
9772;DHT22;4925;52.588;13.370;2023-01-16T01:24:56;6.00;99.90
9772;DHT22;4925;52.588;13.370;2023-01-16T01:27:22;5.90;99.90
9772;DHT22;4925;52.588;13.370;2023-01-16T01:29:48;5.90;99.90
9772;DHT22;4925;52.588;13.370;2023-01-16T01:32:13;5.80;99.90
9772;DHT22;4925;52.588;13.370;2023-01-16T01:34:39;5.80;99.90
9772;DHT22;4925;52.588;13.370;2023-01-16T01:37:06;5.70;99.90
9772;DHT22;4925;52.588;13.370;2023-01-16T01:39:32;5.70;99.90
9772;DHT22;4925;52.588;13.370;2023-01-16T01:41:58;5.80;99.90
9772;DHT22;4925;52.588;13.370;2023-01-16T01:47:19;5.60;99.90
9772;DHT22;4925;52.588;13.370;2023-01-16T01:49:46;5.60;99.90
9772;DHT22;4925;52.588;13.370;2023-01-16T01:52:13;5.60;99.90
9772;DHT22;4925;52.588;13.370;2023-01-16T01:54:44;5.60;99.90
9772;DHT22;4925;52.588;13.370;2023-01-16T01:57:37;5.50;99.90
9772;DHT22;4925;52.588;13.370;2023-01-16T02:00:12;5.50;99.90
9772;DHT22;4925;52.588;13.370;2023-01-16T02:02:45;5.40;99.90
9772;DHT22;4925;52.588;13.370;2023-01-16T02:05:15;5.40;99.90
9772;DHT22;4925;52.588;13.370;2023-01-16T02:07:44;5.40;99.90
9772;DHT22;4925;52.588;13.370;2023-01-16T02:10:14;5.40;99.90
9772;DHT22;4925;52.588;13.370;2023-01-16T02:12:43;5.50;99.90
9772;DHT22;4925;52.588;13.370;2023-01-16T02:15:09;5.40;99.90
9772;DHT22;4925;52.588;13.370;2023-01-16T02:17:44;5.40;99.90
9772;DHT22;4925;52.588;13.370;2023-01-16T02:20:29;5.40;99.90
9772;DHT22;4925;52.588;13.370;2023-01-16T02:31:22;5.50;99.90
9772;DHT22;4925;52.588;13.370;2023-01-16T02:34:19;5.50;99.90
9772;DHT22;4925;52.588;13.370;2023-01-16T02:37:10;5.60;99.90
9772;DHT22;4925;52.588;13.370;2023-01-16T02:40:03;5.50;99.90
9772;DHT22;4925;52.588;13.370;2023-01-16T02:42:45;5.50;99.90
9772;DHT22;4925;52.588;13.370;2023-01-16T02:45:29;5.50;99.90
9772;DHT22;4925;52.588;13.370;2023-01-16T02:48:04;5.50;99.90
9772;DHT22;4925;52.588;13.370;2023-01-16T02:51:02;5.60;99.90
9772;DHT22;4925;52.588;13.370;2023-01-16T02:56:11;5.50;99.90
9772;DHT22;4925;52.588;13.370;2023-01-16T02:58:46;5.50;99.90
9772;DHT22;4925;52.588;13.370;2023-01-16T03:01:13;5.50;99.90
9772;DHT22;4925;52.588;13.370;2023-01-16T03:03:49;5.50;99.90
9772;DHT22;4925;52.588;13.370;2023-01-16T03:11:29;5.50;99.90
9772;DHT22;4925;52.588;13.370;2023-01-16T03:17:51;5.40;99.90
9772;DHT22;4925;52.588;13.370;2023-01-16T03:22:55;5.40;99.90
9772;DHT22;4925;52.588;13.370;2023-01-16T03:31:17;5.30;99.90
9772;DHT22;4925;52.588;13.370;2023-01-16T03:33:54;5.50;99.90
9772;DHT22;4925;52.588;13.370;2023-01-16T03:36:37;5.40;99.90
9772;DHT22;4925;52.588;13.370;2023-01-16T03:39:08;5.50;99.90
9772;DHT22;4925;52.588;13.370;2023-01-16T03:41:38;5.50;99.90
9772;DHT22;4925;52.588;13.370;2023-01-16T03:44:17;5.50;99.90
9772;DHT22;4925;52.588;13.370;2023-01-16T03:46:50;5.60;99.90
9772;DHT22;4925;52.588;13.370;2023-01-16T03:49:20;5.60;99.90
9772;DHT22;4925;52.588;13.370;2023-01-16T03:51:53;5.50;99.90
9772;DHT22;4925;52.588;13.370;2023-01-16T03:57:13;5.40;99.90
9772;DHT22;4925;52.588;13.370;2023-01-16T03:59:43;5.40;99.90
9772;DHT22;4925;52.588;13.370;2023-01-16T04:05:20;5.40;99.90
9772;DHT22;4925;52.588;13.370;2023-01-16T04:07:56;5.30;99.90
9772;DHT22;4925;52.588;13.370;2023-01-16T04:10:26;5.10;99.90
9772;DHT22;4925;52.588;13.370;2023-01-16T04:12:58;5.10;99.90
9772;DHT22;4925;52.588;13.370;2023-01-16T04:15:28;5.20;99.90
9772;DHT22;4925;52.588;13.370;2023-01-16T04:17:55;5.10;99.90
9772;DHT22;4925;52.588;13.370;2023-01-16T04:20:23;5.10;99.90
9772;DHT22;4925;52.588;13.370;2023-01-16T04:22:49;5.00;99.90
9772;DHT22;4925;52.588;13.370;2023-01-16T04:25:17;5.00;99.90
9772;DHT22;4925;52.588;13.370;2023-01-16T04:27:43;5.00;99.90
9772;DHT22;4925;52.588;13.370;2023-01-16T04:30:09;5.00;99.90
9772;DHT22;4925;52.588;13.370;2023-01-16T04:32:37;4.80;99.90
9772;DHT22;4925;52.588;13.370;2023-01-16T04:35:03;4.80;99.90
9772;DHT22;4925;52.588;13.370;2023-01-16T04:37:29;4.80;99.90
9772;DHT22;4925;52.588;13.370;2023-01-16T04:39:55;4.80;99.90
9772;DHT22;4925;52.588;13.370;2023-01-16T04:42:21;4.80;99.90
9772;DHT22;4925;52.588;13.370;2023-01-16T04:44:47;4.80;99.90
9772;DHT22;4925;52.588;13.370;2023-01-16T04:47:13;4.80;99.90
9772;DHT22;4925;52.588;13.370;2023-01-16T04:49:38;4.80;99.90
9772;DHT22;4925;52.588;13.370;2023-01-16T04:52:04;4.90;99.90
9772;DHT22;4925;52.588;13.370;2023-01-16T04:54:30;4.80;99.90
9772;DHT22;4925;52.588;13.370;2023-01-16T04:56:56;4.90;99.90
9772;DHT22;4925;52.588;13.370;2023-01-16T04:59:21;4.90;99.90
9772;DHT22;4925;52.588;13.370;2023-01-16T05:01:47;4.90;99.90
9772;DHT22;4925;52.588;13.370;2023-01-16T05:04:14;4.90;99.90
9772;DHT22;4925;52.588;13.370;2023-01-16T05:06:40;4.90;99.90
9772;DHT22;4925;52.588;13.370;2023-01-16T05:09:06;4.80;99.90
9772;DHT22;4925;52.588;13.370;2023-01-16T05:11:33;4.80;99.90
9772;DHT22;4925;52.588;13.370;2023-01-16T05:13:59;4.70;99.90
9772;DHT22;4925;52.588;13.370;2023-01-16T05:16:25;4.70;99.90
9772;DHT22;4925;52.588;13.370;2023-01-16T05:18:50;4.70;99.90
9772;DHT22;4925;52.588;13.370;2023-01-16T05:21:16;4.70;99.90
9772;DHT22;4925;52.588;13.370;2023-01-16T05:23:42;4.80;99.90
9772;DHT22;4925;52.588;13.370;2023-01-16T05:26:07;4.80;99.90
9772;DHT22;4925;52.588;13.370;2023-01-16T05:28:34;4.80;99.90
9772;DHT22;4925;52.588;13.370;2023-01-16T05:31:01;4.90;99.90
9772;DHT22;4925;52.588;13.370;2023-01-16T05:33:27;4.90;99.90
9772;DHT22;4925;52.588;13.370;2023-01-16T05:35:53;4.70;99.90
9772;DHT22;4925;52.588;13.370;2023-01-16T05:38:22;4.80;99.90
9772;DHT22;4925;52.588;13.370;2023-01-16T05:40:47;4.90;99.90
9772;DHT22;4925;52.588;13.370;2023-01-16T05:43:14;4.90;99.90
9772;DHT22;4925;52.588;13.370;2023-01-16T05:45:40;4.80;99.90
9772;DHT22;4925;52.588;13.370;2023-01-16T05:48:05;4.80;99.90
9772;DHT22;4925;52.588;13.370;2023-01-16T05:50:31;4.80;99.90
9772;DHT22;4925;52.588;13.370;2023-01-16T05:52:57;4.70;99.90
9772;DHT22;4925;52.588;13.370;2023-01-16T05:55:23;4.80;99.90
9772;DHT22;4925;52.588;13.370;2023-01-16T05:57:49;4.70;99.90
9772;DHT22;4925;52.588;13.370;2023-01-16T06:00:16;4.70;99.90
9772;DHT22;4925;52.588;13.370;2023-01-16T06:02:42;4.70;99.90
9772;DHT22;4925;52.588;13.370;2023-01-16T06:05:08;4.80;99.90
9772;DHT22;4925;52.588;13.370;2023-01-16T06:07:34;4.70;99.90
9772;DHT22;4925;52.588;13.370;2023-01-16T06:09:59;4.80;99.90
9772;DHT22;4925;52.588;13.370;2023-01-16T06:12:25;4.90;99.90
9772;DHT22;4925;52.588;13.370;2023-01-16T06:14:51;4.90;99.90
9772;DHT22;4925;52.588;13.370;2023-01-16T06:17:16;4.80;99.90
9772;DHT22;4925;52.588;13.370;2023-01-16T06:19:44;4.80;99.90
9772;DHT22;4925;52.588;13.370;2023-01-16T06:22:10;4.80;99.90
9772;DHT22;4925;52.588;13.370;2023-01-16T06:24:36;4.80;99.90
9772;DHT22;4925;52.588;13.370;2023-01-16T06:27:02;4.70;99.90
9772;DHT22;4925;52.588;13.370;2023-01-16T06:29:28;4.70;99.90
9772;DHT22;4925;52.588;13.370;2023-01-16T06:31:53;4.80;99.90
9772;DHT22;4925;52.588;13.370;2023-01-16T06:34:19;4.70;99.90
9772;DHT22;4925;52.588;13.370;2023-01-16T06:36:45;4.80;99.90
9772;DHT22;4925;52.588;13.370;2023-01-16T06:39:13;4.80;99.90
9772;DHT22;4925;52.588;13.370;2023-01-16T06:41:39;4.70;99.90
9772;DHT22;4925;52.588;13.370;2023-01-16T06:44:05;4.70;99.90
9772;DHT22;4925;52.588;13.370;2023-01-16T06:46:31;4.70;99.90
9772;DHT22;4925;52.588;13.370;2023-01-16T06:48:57;4.80;99.90
9772;DHT22;4925;52.588;13.370;2023-01-16T06:51:22;4.80;99.90
9772;DHT22;4925;52.588;13.370;2023-01-16T06:53:48;4.80;99.90
9772;DHT22;4925;52.588;13.370;2023-01-16T06:56:14;4.90;99.90
9772;DHT22;4925;52.588;13.370;2023-01-16T06:58:39;4.80;99.90
9772;DHT22;4925;52.588;13.370;2023-01-16T07:01:05;4.80;99.90
9772;DHT22;4925;52.588;13.370;2023-01-16T07:03:32;4.80;99.90
9772;DHT22;4925;52.588;13.370;2023-01-16T07:05:58;4.80;99.90
9772;DHT22;4925;52.588;13.370;2023-01-16T07:08:23;4.90;99.90
9772;DHT22;4925;52.588;13.370;2023-01-16T07:10:49;5.00;99.90
9772;DHT22;4925;52.588;13.370;2023-01-16T07:13:15;5.00;99.90
9772;DHT22;4925;52.588;13.370;2023-01-16T07:15:47;4.90;99.90
9772;DHT22;4925;52.588;13.370;2023-01-16T07:18:31;4.50;99.90
9772;DHT22;4925;52.588;13.370;2023-01-16T07:21:36;5.10;99.90
9772;DHT22;4925;52.588;13.370;2023-01-16T07:24:25;5.10;99.90
9772;DHT22;4925;52.588;13.370;2023-01-16T07:26:57;5.10;99.90
9772;DHT22;4925;52.588;13.370;2023-01-16T07:29:24;5.10;99.90
9772;DHT22;4925;52.588;13.370;2023-01-16T07:31:51;5.10;99.90
9772;DHT22;4925;52.588;13.370;2023-01-16T07:34:17;5.10;99.90
9772;DHT22;4925;52.588;13.370;2023-01-16T07:36:43;5.10;99.90
9772;DHT22;4925;52.588;13.370;2023-01-16T07:39:08;5.00;99.90
9772;DHT22;4925;52.588;13.370;2023-01-16T07:41:34;4.90;99.90
9772;DHT22;4925;52.588;13.370;2023-01-16T07:43:59;4.80;99.90
9772;DHT22;4925;52.588;13.370;2023-01-16T07:46:25;4.90;99.90
9772;DHT22;4925;52.588;13.370;2023-01-16T07:48:51;4.90;99.90
9772;DHT22;4925;52.588;13.370;2023-01-16T07:51:18;4.70;99.90
9772;DHT22;4925;52.588;13.370;2023-01-16T07:53:43;4.70;99.90
9772;DHT22;4925;52.588;13.370;2023-01-16T07:56:09;4.80;99.90
9772;DHT22;4925;52.588;13.370;2023-01-16T07:58:35;4.70;99.90
9772;DHT22;4925;52.588;13.370;2023-01-16T08:01:01;4.90;99.90
9772;DHT22;4925;52.588;13.370;2023-01-16T08:03:27;4.90;99.90
9772;DHT22;4925;52.588;13.370;2023-01-16T08:05:56;4.90;99.90
9772;DHT22;4925;52.588;13.370;2023-01-16T08:08:22;4.90;99.90
9772;DHT22;4925;52.588;13.370;2023-01-16T08:10:56;4.80;99.90
9772;DHT22;4925;52.588;13.370;2023-01-16T08:13:23;4.90;99.90
9772;DHT22;4925;52.588;13.370;2023-01-16T08:15:49;4.90;99.90
9772;DHT22;4925;52.588;13.370;2023-01-16T08:18:19;4.90;99.90
9772;DHT22;4925;52.588;13.370;2023-01-16T08:20:46;4.90;99.90
9772;DHT22;4925;52.588;13.370;2023-01-16T08:23:12;4.90;99.90
9772;DHT22;4925;52.588;13.370;2023-01-16T08:25:38;5.00;99.90
9772;DHT22;4925;52.588;13.370;2023-01-16T08:28:04;4.90;99.90
9772;DHT22;4925;52.588;13.370;2023-01-16T08:30:29;5.00;99.90
9772;DHT22;4925;52.588;13.370;2023-01-16T08:33:00;5.00;99.90
9772;DHT22;4925;52.588;13.370;2023-01-16T08:35:26;5.00;99.90
9772;DHT22;4925;52.588;13.370;2023-01-16T08:37:51;5.00;99.90
9772;DHT22;4925;52.588;13.370;2023-01-16T08:40:19;5.10;99.90
9772;DHT22;4925;52.588;13.370;2023-01-16T08:42:45;5.00;99.90
9772;DHT22;4925;52.588;13.370;2023-01-16T08:45:29;5.00;99.90
9772;DHT22;4925;52.588;13.370;2023-01-16T08:48:19;5.10;99.90
9772;DHT22;4925;52.588;13.370;2023-01-16T08:51:10;5.20;99.90
9772;DHT22;4925;52.588;13.370;2023-01-16T08:53:49;5.20;99.90
9772;DHT22;4925;52.588;13.370;2023-01-16T08:56:14;5.10;99.90
9772;DHT22;4925;52.588;13.370;2023-01-16T08:58:40;5.20;99.90
9772;DHT22;4925;52.588;13.370;2023-01-16T09:01:06;5.20;99.90
9772;DHT22;4925;52.588;13.370;2023-01-16T09:03:32;5.20;99.90
9772;DHT22;4925;52.588;13.370;2023-01-16T09:05:59;5.30;99.90
9772;DHT22;4925;52.588;13.370;2023-01-16T09:08:25;5.30;99.90
9772;DHT22;4925;52.588;13.370;2023-01-16T09:10:51;5.40;99.90
9772;DHT22;4925;52.588;13.370;2023-01-16T09:13:35;5.40;99.90
9772;DHT22;4925;52.588;13.370;2023-01-16T09:16:21;5.60;99.90
9772;DHT22;4925;52.588;13.370;2023-01-16T09:18:48;5.70;99.90
9772;DHT22;4925;52.588;13.370;2023-01-16T09:21:14;5.60;99.90
9772;DHT22;4925;52.588;13.370;2023-01-16T09:23:40;5.70;99.90
9772;DHT22;4925;52.588;13.370;2023-01-16T09:26:06;5.80;99.90
9772;DHT22;4925;52.588;13.370;2023-01-16T09:28:32;5.90;99.90
9772;DHT22;4925;52.588;13.370;2023-01-16T09:30:58;6.00;99.90
9772;DHT22;4925;52.588;13.370;2023-01-16T09:33:24;6.00;99.90
9772;DHT22;4925;52.588;13.370;2023-01-16T09:35:49;6.10;99.90
9772;DHT22;4925;52.588;13.370;2023-01-16T09:38:15;6.10;99.90
9772;DHT22;4925;52.588;13.370;2023-01-16T09:40:51;6.30;99.90
9772;DHT22;4925;52.588;13.370;2023-01-16T09:43:33;6.10;99.90
9772;DHT22;4925;52.588;13.370;2023-01-16T09:46:27;6.20;99.90
9772;DHT22;4925;52.588;13.370;2023-01-16T09:51:32;6.10;99.90
9772;DHT22;4925;52.588;13.370;2023-01-16T09:54:03;6.30;99.90
9772;DHT22;4925;52.588;13.370;2023-01-16T09:56:51;6.20;99.90
9772;DHT22;4925;52.588;13.370;2023-01-16T09:59:40;6.20;99.90
9772;DHT22;4925;52.588;13.370;2023-01-16T10:02:22;6.20;99.90
9772;DHT22;4925;52.588;13.370;2023-01-16T10:04:50;6.40;99.90
9772;DHT22;4925;52.588;13.370;2023-01-16T10:10:58;6.50;99.90
9772;DHT22;4925;52.588;13.370;2023-01-16T10:27:42;6.60;99.90
9772;DHT22;4925;52.588;13.370;2023-01-16T10:30:25;6.60;99.90
9772;DHT22;4925;52.588;13.370;2023-01-16T10:33:09;6.60;99.90
9772;DHT22;4925;52.588;13.370;2023-01-16T10:35:40;6.60;99.90
9772;DHT22;4925;52.588;13.370;2023-01-16T10:47:20;6.70;99.90
9772;DHT22;4925;52.588;13.370;2023-01-16T10:50:05;6.60;99.90
9772;DHT22;4925;52.588;13.370;2023-01-16T10:52:32;6.80;99.90
9772;DHT22;4925;52.588;13.370;2023-01-16T10:54:59;6.90;99.90
9772;DHT22;4925;52.588;13.370;2023-01-16T10:57:26;6.90;99.90
9772;DHT22;4925;52.588;13.370;2023-01-16T10:59:56;7.00;99.90
9772;DHT22;4925;52.588;13.370;2023-01-16T11:02:43;7.20;99.90
9772;DHT22;4925;52.588;13.370;2023-01-16T11:05:33;7.30;99.90
9772;DHT22;4925;52.588;13.370;2023-01-16T11:10:31;7.30;99.90
9772;DHT22;4925;52.588;13.370;2023-01-16T11:12:57;7.30;99.90
9772;DHT22;4925;52.588;13.370;2023-01-16T11:16:00;7.30;99.90
9772;DHT22;4925;52.588;13.370;2023-01-16T11:18:45;7.40;99.90
9772;DHT22;4925;52.588;13.370;2023-01-16T11:21:15;7.40;99.90
9772;DHT22;4925;52.588;13.370;2023-01-16T11:23:43;7.30;99.90
9772;DHT22;4925;52.588;13.370;2023-01-16T11:26:11;7.40;99.90
9772;DHT22;4925;52.588;13.370;2023-01-16T11:28:37;7.50;99.90
9772;DHT22;4925;52.588;13.370;2023-01-16T11:31:18;7.60;99.90
9772;DHT22;4925;52.588;13.370;2023-01-16T11:33:48;7.70;99.90
9772;DHT22;4925;52.588;13.370;2023-01-16T11:36:19;7.70;99.90
9772;DHT22;4925;52.588;13.370;2023-01-16T11:38:47;7.80;99.90
9772;DHT22;4925;52.588;13.370;2023-01-16T11:41:23;7.70;99.90
9772;DHT22;4925;52.588;13.370;2023-01-16T11:44:22;7.80;99.90
9772;DHT22;4925;52.588;13.370;2023-01-16T11:47:31;7.90;99.90
9772;DHT22;4925;52.588;13.370;2023-01-16T11:49:56;7.90;99.90
9772;DHT22;4925;52.588;13.370;2023-01-16T11:52:23;8.00;99.90
9772;DHT22;4925;52.588;13.370;2023-01-16T11:54:58;8.30;99.90
9772;DHT22;4925;52.588;13.370;2023-01-16T11:58:11;7.20;99.90
9772;DHT22;4925;52.588;13.370;2023-01-16T12:00:55;8.00;99.90
9772;DHT22;4925;52.588;13.370;2023-01-16T12:06:48;8.10;99.90
9772;DHT22;4925;52.588;13.370;2023-01-16T12:14:57;8.40;99.90
9772;DHT22;4925;52.588;13.370;2023-01-16T12:17:50;8.30;99.90
9772;DHT22;4925;52.588;13.370;2023-01-16T12:20:31;8.40;99.90
9772;DHT22;4925;52.588;13.370;2023-01-16T12:23:28;8.40;99.90
9772;DHT22;4925;52.588;13.370;2023-01-16T12:31:31;8.80;99.90
9772;DHT22;4925;52.588;13.370;2023-01-16T12:37:13;8.80;99.90
9772;DHT22;4925;52.588;13.370;2023-01-16T12:40:18;8.80;99.90
9772;DHT22;4925;52.588;13.370;2023-01-16T12:45:58;8.90;99.90
9772;DHT22;4925;52.588;13.370;2023-01-16T12:51:57;9.00;99.40
9772;DHT22;4925;52.588;13.370;2023-01-16T13:00:14;9.20;99.90
9772;DHT22;4925;52.588;13.370;2023-01-16T13:03:26;9.10;99.90
9772;DHT22;4925;52.588;13.370;2023-01-16T13:05:54;9.20;99.90
9772;DHT22;4925;52.588;13.370;2023-01-16T13:08:46;9.20;99.90
9772;DHT22;4925;52.588;13.370;2023-01-16T13:11:24;9.30;99.90
9772;DHT22;4925;52.588;13.370;2023-01-16T13:14:11;9.20;99.80
9772;DHT22;4925;52.588;13.370;2023-01-16T13:16:41;9.30;99.90
9772;DHT22;4925;52.588;13.370;2023-01-16T13:19:15;9.40;99.90
9772;DHT22;4925;52.588;13.370;2023-01-16T13:22:25;9.30;99.90
9772;DHT22;4925;52.588;13.370;2023-01-16T13:27:43;9.10;99.90
9772;DHT22;4925;52.588;13.370;2023-01-16T13:30:15;8.90;99.70
9772;DHT22;4925;52.588;13.370;2023-01-16T13:32:45;8.90;99.90
9772;DHT22;4925;52.588;13.370;2023-01-16T13:42:40;8.70;99.90
9772;DHT22;4925;52.588;13.370;2023-01-16T13:45:16;8.60;99.90
9772;DHT22;4925;52.588;13.370;2023-01-16T13:48:02;8.60;99.90
9772;DHT22;4925;52.588;13.370;2023-01-16T13:50:30;8.60;99.90
9772;DHT22;4925;52.588;13.370;2023-01-16T13:53:00;8.50;99.90
9772;DHT22;4925;52.588;13.370;2023-01-16T13:55:33;8.70;99.90
9772;DHT22;4925;52.588;13.370;2023-01-16T13:58:20;8.50;99.90
9772;DHT22;4925;52.588;13.370;2023-01-16T14:00:59;8.50;99.90
9772;DHT22;4925;52.588;13.370;2023-01-16T14:03:30;8.60;99.90
9772;DHT22;4925;52.588;13.370;2023-01-16T14:06:16;8.50;99.90
9772;DHT22;4925;52.588;13.370;2023-01-16T14:08:46;8.50;99.90
9772;DHT22;4925;52.588;13.370;2023-01-16T14:17:27;8.50;99.90
9772;DHT22;4925;52.588;13.370;2023-01-16T14:19:59;8.40;99.90
9772;DHT22;4925;52.588;13.370;2023-01-16T14:22:41;8.40;99.90
9772;DHT22;4925;52.588;13.370;2023-01-16T14:25:45;8.20;99.90
9772;DHT22;4925;52.588;13.370;2023-01-16T14:28:16;8.30;99.90
9772;DHT22;4925;52.588;13.370;2023-01-16T14:30:44;8.20;99.90
9772;DHT22;4925;52.588;13.370;2023-01-16T14:33:18;8.10;99.90
9772;DHT22;4925;52.588;13.370;2023-01-16T14:35:50;8.10;99.90
9772;DHT22;4925;52.588;13.370;2023-01-16T14:38:28;8.10;99.90
9772;DHT22;4925;52.588;13.370;2023-01-16T14:41:02;8.00;99.90
9772;DHT22;4925;52.588;13.370;2023-01-16T14:44:16;7.90;99.90
9772;DHT22;4925;52.588;13.370;2023-01-16T14:47:23;7.80;99.90
9772;DHT22;4925;52.588;13.370;2023-01-16T14:50:14;7.60;99.90
9772;DHT22;4925;52.588;13.370;2023-01-16T14:53:04;7.60;99.90
9772;DHT22;4925;52.588;13.370;2023-01-16T14:56:04;7.60;99.90
9772;DHT22;4925;52.588;13.370;2023-01-16T14:58:47;7.60;99.90
9772;DHT22;4925;52.588;13.370;2023-01-16T15:01:27;7.60;99.90
9772;DHT22;4925;52.588;13.370;2023-01-16T15:04:13;7.60;99.90
9772;DHT22;4925;52.588;13.370;2023-01-16T15:06:44;7.60;99.90
9772;DHT22;4925;52.588;13.370;2023-01-16T15:09:17;7.60;99.90
9772;DHT22;4925;52.588;13.370;2023-01-16T15:11:55;7.50;99.90
9772;DHT22;4925;52.588;13.370;2023-01-16T15:14:22;7.40;99.90
9772;DHT22;4925;52.588;13.370;2023-01-16T15:16:54;7.40;99.90
9772;DHT22;4925;52.588;13.370;2023-01-16T15:20:24;7.30;99.90
9772;DHT22;4925;52.588;13.370;2023-01-16T15:23:33;7.20;99.90
9772;DHT22;4925;52.588;13.370;2023-01-16T15:31:24;7.10;99.90
9772;DHT22;4925;52.588;13.370;2023-01-16T15:36:39;7.00;99.90
9772;DHT22;4925;52.588;13.370;2023-01-16T15:41:41;6.90;99.90
9772;DHT22;4925;52.588;13.370;2023-01-16T15:44:27;6.90;99.90
9772;DHT22;4925;52.588;13.370;2023-01-16T15:50:17;6.70;99.90
9772;DHT22;4925;52.588;13.370;2023-01-16T15:52:46;6.80;99.90
9772;DHT22;4925;52.588;13.370;2023-01-16T15:55:24;6.70;99.90
9772;DHT22;4925;52.588;13.370;2023-01-16T15:57:57;6.70;99.90
9772;DHT22;4925;52.588;13.370;2023-01-16T16:00:33;6.70;99.90
9772;DHT22;4925;52.588;13.370;2023-01-16T16:03:20;6.70;99.90
9772;DHT22;4925;52.588;13.370;2023-01-16T16:05:49;6.60;99.90
9772;DHT22;4925;52.588;13.370;2023-01-16T16:08:20;6.60;99.90
9772;DHT22;4925;52.588;13.370;2023-01-16T16:10:47;6.60;99.90
9772;DHT22;4925;52.588;13.370;2023-01-16T16:13:40;6.60;99.90
9772;DHT22;4925;52.588;13.370;2023-01-16T16:16:23;6.60;99.90
9772;DHT22;4925;52.588;13.370;2023-01-16T16:19:08;6.60;99.90
9772;DHT22;4925;52.588;13.370;2023-01-16T16:21:38;6.50;99.90
9772;DHT22;4925;52.588;13.370;2023-01-16T16:24:27;6.40;99.90
9772;DHT22;4925;52.588;13.370;2023-01-16T16:26:53;6.40;99.90
9772;DHT22;4925;52.588;13.370;2023-01-16T16:29:20;6.40;99.90
9772;DHT22;4925;52.588;13.370;2023-01-16T16:31:47;6.40;99.90
9772;DHT22;4925;52.588;13.370;2023-01-16T16:34:22;6.40;99.90
9772;DHT22;4925;52.588;13.370;2023-01-16T16:36:53;6.40;99.90
9772;DHT22;4925;52.588;13.370;2023-01-16T16:47:37;6.30;99.90
9772;DHT22;4925;52.588;13.370;2023-01-16T16:50:27;6.20;99.90
9772;DHT22;4925;52.588;13.370;2023-01-16T16:53:13;6.20;99.90
9772;DHT22;4925;52.588;13.370;2023-01-16T16:55:47;6.20;99.90
9772;DHT22;4925;52.588;13.370;2023-01-16T16:58:24;6.20;99.90
9772;DHT22;4925;52.588;13.370;2023-01-16T17:01:00;6.20;99.90
9772;DHT22;4925;52.588;13.370;2023-01-16T17:03:26;6.30;99.90
9772;DHT22;4925;52.588;13.370;2023-01-16T17:05:53;6.20;99.90
9772;DHT22;4925;52.588;13.370;2023-01-16T17:08:25;6.20;99.90
9772;DHT22;4925;52.588;13.370;2023-01-16T17:10:54;6.20;99.90
9772;DHT22;4925;52.588;13.370;2023-01-16T17:13:21;6.20;99.90
9772;DHT22;4925;52.588;13.370;2023-01-16T17:15:54;6.10;99.90
9772;DHT22;4925;52.588;13.370;2023-01-16T17:18:23;6.10;99.90
9772;DHT22;4925;52.588;13.370;2023-01-16T17:20:49;6.10;99.90
9772;DHT22;4925;52.588;13.370;2023-01-16T17:23:18;6.10;99.90
9772;DHT22;4925;52.588;13.370;2023-01-16T17:25:44;6.10;99.90
9772;DHT22;4925;52.588;13.370;2023-01-16T17:28:10;6.00;99.90
9772;DHT22;4925;52.588;13.370;2023-01-16T17:30:37;6.00;99.90
9772;DHT22;4925;52.588;13.370;2023-01-16T17:33:12;5.90;99.90
9772;DHT22;4925;52.588;13.370;2023-01-16T17:35:45;5.90;99.90
9772;DHT22;4925;52.588;13.370;2023-01-16T17:38:25;5.90;99.90
9772;DHT22;4925;52.588;13.370;2023-01-16T17:40:51;5.90;99.90
9772;DHT22;4925;52.588;13.370;2023-01-16T17:43:19;6.00;99.90
9772;DHT22;4925;52.588;13.370;2023-01-16T17:46:14;5.90;99.90
9772;DHT22;4925;52.588;13.370;2023-01-16T17:48:41;5.90;99.90
9772;DHT22;4925;52.588;13.370;2023-01-16T17:51:08;5.90;99.90
9772;DHT22;4925;52.588;13.370;2023-01-16T17:53:35;5.90;99.90
9772;DHT22;4925;52.588;13.370;2023-01-16T17:56:03;5.90;99.90
9772;DHT22;4925;52.588;13.370;2023-01-16T17:58:33;5.90;99.90
9772;DHT22;4925;52.588;13.370;2023-01-16T18:01:13;5.90;99.90
9772;DHT22;4925;52.588;13.370;2023-01-16T18:03:42;5.90;99.90
9772;DHT22;4925;52.588;13.370;2023-01-16T18:06:08;5.90;99.90
9772;DHT22;4925;52.588;13.370;2023-01-16T18:08:35;5.90;99.90
9772;DHT22;4925;52.588;13.370;2023-01-16T18:11:04;5.90;99.90
9772;DHT22;4925;52.588;13.370;2023-01-16T18:13:49;5.90;99.90
9772;DHT22;4925;52.588;13.370;2023-01-16T18:16:34;5.90;99.90
9772;DHT22;4925;52.588;13.370;2023-01-16T18:19:19;6.00;99.90
9772;DHT22;4925;52.588;13.370;2023-01-16T18:21:44;6.00;99.90
9772;DHT22;4925;52.588;13.370;2023-01-16T18:24:26;6.00;99.90
9772;DHT22;4925;52.588;13.370;2023-01-16T18:26:52;6.00;99.90
9772;DHT22;4925;52.588;13.370;2023-01-16T18:29:18;6.10;99.90
9772;DHT22;4925;52.588;13.370;2023-01-16T18:31:44;6.00;99.90
9772;DHT22;4925;52.588;13.370;2023-01-16T18:34:29;6.10;99.90
9772;DHT22;4925;52.588;13.370;2023-01-16T18:36:55;6.10;99.90
9772;DHT22;4925;52.588;13.370;2023-01-16T18:39:21;6.10;99.90
9772;DHT22;4925;52.588;13.370;2023-01-16T18:42:05;6.00;99.90
9772;DHT22;4925;52.588;13.370;2023-01-16T18:44:49;5.90;99.90
9772;DHT22;4925;52.588;13.370;2023-01-16T18:47:33;6.00;99.90
9772;DHT22;4925;52.588;13.370;2023-01-16T18:50:17;5.90;99.90
9772;DHT22;4925;52.588;13.370;2023-01-16T18:56:02;6.00;99.90
9772;DHT22;4925;52.588;13.370;2023-01-16T18:58:46;6.00;99.90